sensor_id;sensor_type;location;lat;lon;timestamp;P1;durP1;ratioP1;P2;durP2;ratioP2
30036;SDS011;36325;51.512;-0.382;2023-03-01T00:01:40;8.88;;;4.07;;
30036;SDS011;36325;51.512;-0.382;2023-03-01T00:04:07;8.18;;;3.88;;
30036;SDS011;36325;51.512;-0.382;2023-03-01T00:06:34;10.90;;;3.63;;
30036;SDS011;36325;51.512;-0.382;2023-03-01T00:09:02;8.15;;;4.18;;
30036;SDS011;36325;51.512;-0.382;2023-03-01T00:11:30;7.05;;;3.90;;
30036;SDS011;36325;51.512;-0.382;2023-03-01T00:13:59;7.30;;;3.75;;
30036;SDS011;36325;51.512;-0.382;2023-03-01T00:16:30;6.32;;;3.95;;
30036;SDS011;36325;51.512;-0.382;2023-03-01T00:19:00;9.60;;;4.25;;
30036;SDS011;36325;51.512;-0.382;2023-03-01T00:21:27;8.60;;;4.57;;
30036;SDS011;36325;51.512;-0.382;2023-03-01T00:23:55;7.15;;;3.67;;
30036;SDS011;36325;51.512;-0.382;2023-03-01T00:26:23;12.45;;;5.15;;
30036;SDS011;36325;51.512;-0.382;2023-03-01T00:28:51;9.75;;;5.22;;
30036;SDS011;36325;51.512;-0.382;2023-03-01T00:31:20;9.98;;;4.43;;
30036;SDS011;36325;51.512;-0.382;2023-03-01T00:33:48;8.57;;;4.38;;
30036;SDS011;36325;51.512;-0.382;2023-03-01T00:36:24;9.50;;;4.35;;
30036;SDS011;36325;51.512;-0.382;2023-03-01T00:38:54;9.70;;;4.43;;
30036;SDS011;36325;51.512;-0.382;2023-03-01T00:41:22;6.40;;;3.78;;
30036;SDS011;36325;51.512;-0.382;2023-03-01T00:43:50;12.18;;;3.95;;
30036;SDS011;36325;51.512;-0.382;2023-03-01T00:46:19;7.10;;;3.83;;
30036;SDS011;36325;51.512;-0.382;2023-03-01T00:48:48;7.65;;;3.17;;
30036;SDS011;36325;51.512;-0.382;2023-03-01T00:51:16;12.27;;;3.72;;
30036;SDS011;36325;51.512;-0.382;2023-03-01T00:53:46;6.97;;;3.50;;
30036;SDS011;36325;51.512;-0.382;2023-03-01T00:56:14;5.82;;;3.25;;
30036;SDS011;36325;51.512;-0.382;2023-03-01T00:58:42;5.85;;;3.22;;
30036;SDS011;36325;51.512;-0.382;2023-03-01T01:01:11;7.63;;;3.35;;
30036;SDS011;36325;51.512;-0.382;2023-03-01T01:03:50;5.10;;;3.15;;
30036;SDS011;36325;51.512;-0.382;2023-03-01T01:06:25;5.80;;;3.28;;
30036;SDS011;36325;51.512;-0.382;2023-03-01T01:08:54;7.53;;;3.13;;
30036;SDS011;36325;51.512;-0.382;2023-03-01T01:11:23;5.68;;;3.33;;
30036;SDS011;36325;51.512;-0.382;2023-03-01T01:13:52;5.85;;;3.10;;
30036;SDS011;36325;51.512;-0.382;2023-03-01T01:16:21;5.70;;;3.40;;
30036;SDS011;36325;51.512;-0.382;2023-03-01T01:18:51;7.65;;;3.25;;
30036;SDS011;36325;51.512;-0.382;2023-03-01T01:21:19;9.32;;;3.63;;
30036;SDS011;36325;51.512;-0.382;2023-03-01T01:23:49;6.78;;;3.35;;
30036;SDS011;36325;51.512;-0.382;2023-03-01T01:26:21;6.30;;;3.03;;
30036;SDS011;36325;51.512;-0.382;2023-03-01T01:28:50;9.18;;;3.15;;
30036;SDS011;36325;51.512;-0.382;2023-03-01T01:31:20;8.68;;;2.95;;
30036;SDS011;36325;51.512;-0.382;2023-03-01T01:33:50;8.77;;;2.65;;
30036;SDS011;36325;51.512;-0.382;2023-03-01T01:36:21;4.70;;;2.90;;
30036;SDS011;36325;51.512;-0.382;2023-03-01T01:38:49;6.65;;;3.30;;
30036;SDS011;36325;51.512;-0.382;2023-03-01T01:41:16;6.90;;;3.17;;
30036;SDS011;36325;51.512;-0.382;2023-03-01T01:43:46;6.07;;;2.50;;
30036;SDS011;36325;51.512;-0.382;2023-03-01T01:49:30;8.43;;;3.05;;
30036;SDS011;36325;51.512;-0.382;2023-03-01T01:54:42;7.05;;;2.28;;
30036;SDS011;36325;51.512;-0.382;2023-03-01T01:57:21;6.55;;;2.15;;
30036;SDS011;36325;51.512;-0.382;2023-03-01T02:00:03;5.15;;;2.28;;
30036;SDS011;36325;51.512;-0.382;2023-03-01T02:02:40;3.33;;;2.03;;
30036;SDS011;36325;51.512;-0.382;2023-03-01T02:05:15;5.63;;;1.80;;
30036;SDS011;36325;51.512;-0.382;2023-03-01T02:07:51;6.32;;;2.72;;
30036;SDS011;36325;51.512;-0.382;2023-03-01T02:10:19;3.13;;;2.03;;
30036;SDS011;36325;51.512;-0.382;2023-03-01T02:12:48;2.97;;;1.90;;
30036;SDS011;36325;51.512;-0.382;2023-03-01T02:15:15;5.38;;;2.13;;
30036;SDS011;36325;51.512;-0.382;2023-03-01T02:17:42;2.75;;;1.83;;
30036;SDS011;36325;51.512;-0.382;2023-03-01T02:22:40;9.40;;;2.15;;
30036;SDS011;36325;51.512;-0.382;2023-03-01T02:30:42;3.47;;;2.03;;
30036;SDS011;36325;51.512;-0.382;2023-03-01T02:33:31;3.75;;;1.88;;
30036;SDS011;36325;51.512;-0.382;2023-03-01T02:36:00;3.85;;;2.10;;
30036;SDS011;36325;51.512;-0.382;2023-03-01T02:38:37;3.53;;;1.60;;
30036;SDS011;36325;51.512;-0.382;2023-03-01T02:41:05;6.22;;;2.08;;
30036;SDS011;36325;51.512;-0.382;2023-03-01T02:43:35;4.78;;;2.03;;
30036;SDS011;36325;51.512;-0.382;2023-03-01T02:46:05;4.30;;;1.80;;
30036;SDS011;36325;51.512;-0.382;2023-03-01T02:48:42;2.63;;;1.50;;
30036;SDS011;36325;51.512;-0.382;2023-03-01T02:56:37;6.47;;;1.40;;
30036;SDS011;36325;51.512;-0.382;2023-03-01T02:59:04;2.70;;;1.80;;
30036;SDS011;36325;51.512;-0.382;2023-03-01T03:01:33;4.28;;;1.58;;
30036;SDS011;36325;51.512;-0.382;2023-03-01T03:06:34;3.13;;;1.60;;
30036;SDS011;36325;51.512;-0.382;2023-03-01T03:09:02;2.80;;;1.48;;
30036;SDS011;36325;51.512;-0.382;2023-03-01T03:11:30;8.25;;;1.77;;
30036;SDS011;36325;51.512;-0.382;2023-03-01T03:13:59;2.80;;;1.73;;
30036;SDS011;36325;51.512;-0.382;2023-03-01T03:16:27;4.90;;;2.30;;
30036;SDS011;36325;51.512;-0.382;2023-03-01T03:18:56;5.85;;;1.70;;
30036;SDS011;36325;51.512;-0.382;2023-03-01T03:21:32;2.72;;;2.05;;
30036;SDS011;36325;51.512;-0.382;2023-03-01T03:23:59;2.50;;;1.58;;
30036;SDS011;36325;51.512;-0.382;2023-03-01T03:26:27;4.15;;;1.80;;
30036;SDS011;36325;51.512;-0.382;2023-03-01T03:28:55;2.70;;;1.75;;
30036;SDS011;36325;51.512;-0.382;2023-03-01T03:31:23;2.60;;;1.80;;
30036;SDS011;36325;51.512;-0.382;2023-03-01T03:33:51;2.22;;;1.58;;
30036;SDS011;36325;51.512;-0.382;2023-03-01T03:36:19;3.95;;;1.73;;
30036;SDS011;36325;51.512;-0.382;2023-03-01T03:38:48;2.65;;;2.00;;
30036;SDS011;36325;51.512;-0.382;2023-03-01T03:41:16;2.83;;;1.67;;
30036;SDS011;36325;51.512;-0.382;2023-03-01T03:43:43;5.22;;;1.75;;
30036;SDS011;36325;51.512;-0.382;2023-03-01T03:46:11;3.50;;;1.48;;
30036;SDS011;36325;51.512;-0.382;2023-03-01T03:48:40;3.42;;;1.98;;
30036;SDS011;36325;51.512;-0.382;2023-03-01T03:51:12;4.38;;;2.05;;
30036;SDS011;36325;51.512;-0.382;2023-03-01T03:53:40;2.88;;;1.85;;
30036;SDS011;36325;51.512;-0.382;2023-03-01T03:56:08;2.45;;;1.63;;
30036;SDS011;36325;51.512;-0.382;2023-03-01T03:58:36;2.28;;;1.42;;
30036;SDS011;36325;51.512;-0.382;2023-03-01T04:01:04;2.60;;;1.60;;
30036;SDS011;36325;51.512;-0.382;2023-03-01T04:03:31;3.60;;;1.70;;
30036;SDS011;36325;51.512;-0.382;2023-03-01T04:06:00;6.18;;;1.85;;
30036;SDS011;36325;51.512;-0.382;2023-03-01T04:08:27;3.85;;;1.90;;
30036;SDS011;36325;51.512;-0.382;2023-03-01T04:10:59;2.30;;;1.63;;
30036;SDS011;36325;51.512;-0.382;2023-03-01T04:13:48;2.15;;;1.30;;
30036;SDS011;36325;51.512;-0.382;2023-03-01T04:16:16;3.10;;;1.80;;
30036;SDS011;36325;51.512;-0.382;2023-03-01T04:18:44;5.80;;;1.50;;
30036;SDS011;36325;51.512;-0.382;2023-03-01T04:21:11;2.85;;;1.80;;
30036;SDS011;36325;51.512;-0.382;2023-03-01T04:23:39;3.22;;;1.50;;
30036;SDS011;36325;51.512;-0.382;2023-03-01T04:26:07;2.70;;;1.45;;
30036;SDS011;36325;51.512;-0.382;2023-03-01T04:28:36;3.17;;;1.50;;
30036;SDS011;36325;51.512;-0.382;2023-03-01T04:31:10;3.38;;;1.90;;
30036;SDS011;36325;51.512;-0.382;2023-03-01T04:33:40;2.55;;;1.55;;
30036;SDS011;36325;51.512;-0.382;2023-03-01T04:36:09;4.00;;;2.15;;
30036;SDS011;36325;51.512;-0.382;2023-03-01T04:38:38;3.10;;;1.58;;
30036;SDS011;36325;51.512;-0.382;2023-03-01T04:41:07;2.45;;;1.50;;
30036;SDS011;36325;51.512;-0.382;2023-03-01T04:43:37;4.07;;;1.95;;
30036;SDS011;36325;51.512;-0.382;2023-03-01T04:46:05;3.58;;;1.77;;
30036;SDS011;36325;51.512;-0.382;2023-03-01T04:48:36;5.40;;;1.52;;
30036;SDS011;36325;51.512;-0.382;2023-03-01T04:51:04;3.45;;;1.75;;
30036;SDS011;36325;51.512;-0.382;2023-03-01T04:53:32;4.90;;;1.85;;
30036;SDS011;36325;51.512;-0.382;2023-03-01T04:56:02;5.45;;;1.83;;
30036;SDS011;36325;51.512;-0.382;2023-03-01T04:58:30;2.85;;;1.88;;
30036;SDS011;36325;51.512;-0.382;2023-03-01T05:00:57;8.30;;;2.25;;
30036;SDS011;36325;51.512;-0.382;2023-03-01T05:03:25;3.15;;;1.88;;
30036;SDS011;36325;51.512;-0.382;2023-03-01T05:05:52;5.15;;;2.00;;
30036;SDS011;36325;51.512;-0.382;2023-03-01T05:08:19;3.55;;;1.98;;
30036;SDS011;36325;51.512;-0.382;2023-03-01T05:10:51;5.80;;;2.10;;
30036;SDS011;36325;51.512;-0.382;2023-03-01T05:13:20;3.00;;;1.70;;
30036;SDS011;36325;51.512;-0.382;2023-03-01T05:15:49;7.75;;;2.28;;
30036;SDS011;36325;51.512;-0.382;2023-03-01T05:18:22;5.75;;;2.88;;
30036;SDS011;36325;51.512;-0.382;2023-03-01T05:20:55;6.40;;;1.90;;
30036;SDS011;36325;51.512;-0.382;2023-03-01T05:23:28;3.58;;;2.00;;
30036;SDS011;36325;51.512;-0.382;2023-03-01T05:25:59;6.45;;;2.47;;
30036;SDS011;36325;51.512;-0.382;2023-03-01T05:28:27;5.50;;;1.85;;
30036;SDS011;36325;51.512;-0.382;2023-03-01T05:30:55;4.03;;;1.85;;
30036;SDS011;36325;51.512;-0.382;2023-03-01T05:33:24;2.60;;;1.73;;
30036;SDS011;36325;51.512;-0.382;2023-03-01T05:35:51;4.35;;;2.30;;
30036;SDS011;36325;51.512;-0.382;2023-03-01T05:38:20;7.22;;;1.67;;
30036;SDS011;36325;51.512;-0.382;2023-03-01T05:40:49;7.95;;;2.30;;
30036;SDS011;36325;51.512;-0.382;2023-03-01T05:43:16;3.47;;;2.00;;
30036;SDS011;36325;51.512;-0.382;2023-03-01T05:45:44;6.03;;;2.10;;
30036;SDS011;36325;51.512;-0.382;2023-03-01T05:48:12;4.55;;;2.35;;
30036;SDS011;36325;51.512;-0.382;2023-03-01T05:50:43;9.80;;;2.13;;
30036;SDS011;36325;51.512;-0.382;2023-03-01T05:53:16;4.80;;;1.80;;
30036;SDS011;36325;51.512;-0.382;2023-03-01T05:55:45;3.30;;;2.05;;
30036;SDS011;36325;51.512;-0.382;2023-03-01T05:58:14;5.07;;;2.00;;
30036;SDS011;36325;51.512;-0.382;2023-03-01T06:00:44;3.83;;;2.15;;
30036;SDS011;36325;51.512;-0.382;2023-03-01T06:03:13;4.07;;;2.17;;
30036;SDS011;36325;51.512;-0.382;2023-03-01T06:05:42;6.20;;;2.47;;
30036;SDS011;36325;51.512;-0.382;2023-03-01T06:08:11;3.75;;;2.45;;
30036;SDS011;36325;51.512;-0.382;2023-03-01T06:10:39;4.38;;;2.17;;
30036;SDS011;36325;51.512;-0.382;2023-03-01T06:13:07;6.85;;;2.40;;
30036;SDS011;36325;51.512;-0.382;2023-03-01T06:15:34;4.93;;;1.55;;
30036;SDS011;36325;51.512;-0.382;2023-03-01T06:18:02;5.43;;;2.10;;
30036;SDS011;36325;51.512;-0.382;2023-03-01T06:20:29;8.55;;;2.38;;
30036;SDS011;36325;51.512;-0.382;2023-03-01T06:22:56;4.13;;;1.88;;
30036;SDS011;36325;51.512;-0.382;2023-03-01T06:25:24;3.65;;;2.20;;
30036;SDS011;36325;51.512;-0.382;2023-03-01T06:27:53;6.95;;;2.05;;
30036;SDS011;36325;51.512;-0.382;2023-03-01T06:30:20;10.38;;;2.13;;
30036;SDS011;36325;51.512;-0.382;2023-03-01T06:32:49;5.50;;;2.10;;
30036;SDS011;36325;51.512;-0.382;2023-03-01T06:35:17;5.72;;;2.30;;
30036;SDS011;36325;51.512;-0.382;2023-03-01T06:37:46;5.70;;;2.20;;
30036;SDS011;36325;51.512;-0.382;2023-03-01T06:40:15;11.15;;;2.55;;
30036;SDS011;36325;51.512;-0.382;2023-03-01T06:42:43;4.43;;;1.90;;
30036;SDS011;36325;51.512;-0.382;2023-03-01T06:45:15;6.45;;;2.20;;
30036;SDS011;36325;51.512;-0.382;2023-03-01T06:47:44;4.10;;;1.65;;
30036;SDS011;36325;51.512;-0.382;2023-03-01T06:50:11;4.03;;;2.22;;
30036;SDS011;36325;51.512;-0.382;2023-03-01T06:52:40;4.05;;;2.15;;
30036;SDS011;36325;51.512;-0.382;2023-03-01T06:55:07;10.90;;;2.92;;
30036;SDS011;36325;51.512;-0.382;2023-03-01T06:57:35;6.10;;;2.42;;
30036;SDS011;36325;51.512;-0.382;2023-03-01T07:00:05;3.90;;;2.13;;
30036;SDS011;36325;51.512;-0.382;2023-03-01T07:02:33;7.10;;;2.55;;
30036;SDS011;36325;51.512;-0.382;2023-03-01T07:05:00;7.05;;;2.40;;
30036;SDS011;36325;51.512;-0.382;2023-03-01T07:07:28;6.22;;;2.63;;
30036;SDS011;36325;51.512;-0.382;2023-03-01T07:09:56;6.43;;;2.35;;
30036;SDS011;36325;51.512;-0.382;2023-03-01T07:12:23;4.65;;;2.40;;
30036;SDS011;36325;51.512;-0.382;2023-03-01T07:14:50;6.60;;;2.40;;
30036;SDS011;36325;51.512;-0.382;2023-03-01T07:17:17;3.50;;;2.15;;
30036;SDS011;36325;51.512;-0.382;2023-03-01T07:19:45;9.25;;;2.80;;
30036;SDS011;36325;51.512;-0.382;2023-03-01T07:22:13;4.78;;;2.08;;
30036;SDS011;36325;51.512;-0.382;2023-03-01T07:24:41;4.47;;;2.00;;
30036;SDS011;36325;51.512;-0.382;2023-03-01T07:27:09;4.43;;;2.53;;
30036;SDS011;36325;51.512;-0.382;2023-03-01T07:29:38;6.57;;;2.10;;
30036;SDS011;36325;51.512;-0.382;2023-03-01T07:32:10;7.43;;;1.98;;
30036;SDS011;36325;51.512;-0.382;2023-03-01T07:34:38;6.50;;;2.15;;
30036;SDS011;36325;51.512;-0.382;2023-03-01T07:37:05;9.43;;;2.45;;
30036;SDS011;36325;51.512;-0.382;2023-03-01T07:39:32;4.60;;;1.92;;
30036;SDS011;36325;51.512;-0.382;2023-03-01T07:41:59;5.28;;;2.55;;
30036;SDS011;36325;51.512;-0.382;2023-03-01T07:44:28;12.32;;;4.65;;
30036;SDS011;36325;51.512;-0.382;2023-03-01T07:46:58;16.27;;;4.97;;
30036;SDS011;36325;51.512;-0.382;2023-03-01T07:49:29;7.03;;;3.17;;
30036;SDS011;36325;51.512;-0.382;2023-03-01T07:51:56;11.65;;;2.90;;
30036;SDS011;36325;51.512;-0.382;2023-03-01T07:54:24;8.38;;;2.55;;
30036;SDS011;36325;51.512;-0.382;2023-03-01T07:56:52;15.02;;;2.83;;
30036;SDS011;36325;51.512;-0.382;2023-03-01T07:59:21;5.88;;;2.88;;
30036;SDS011;36325;51.512;-0.382;2023-03-01T08:01:50;6.00;;;2.33;;
30036;SDS011;36325;51.512;-0.382;2023-03-01T08:04:17;11.73;;;3.30;;
30036;SDS011;36325;51.512;-0.382;2023-03-01T08:06:45;5.38;;;2.25;;
30036;SDS011;36325;51.512;-0.382;2023-03-01T08:09:12;7.88;;;3.10;;
30036;SDS011;36325;51.512;-0.382;2023-03-01T08:11:42;6.82;;;2.60;;
30036;SDS011;36325;51.512;-0.382;2023-03-01T08:16:40;5.40;;;1.67;;
30036;SDS011;36325;51.512;-0.382;2023-03-01T08:19:08;5.38;;;2.40;;
30036;SDS011;36325;51.512;-0.382;2023-03-01T08:21:36;7.13;;;2.88;;
30036;SDS011;36325;51.512;-0.382;2023-03-01T08:24:04;7.35;;;2.20;;
30036;SDS011;36325;51.512;-0.382;2023-03-01T08:26:33;7.20;;;2.45;;
30036;SDS011;36325;51.512;-0.382;2023-03-01T08:29:00;3.20;;;1.90;;
30036;SDS011;36325;51.512;-0.382;2023-03-01T08:31:30;8.20;;;3.15;;
30036;SDS011;36325;51.512;-0.382;2023-03-01T08:34:04;7.13;;;1.95;;
30036;SDS011;36325;51.512;-0.382;2023-03-01T08:36:36;6.68;;;1.75;;
30036;SDS011;36325;51.512;-0.382;2023-03-01T08:39:05;1.95;;;1.33;;
30036;SDS011;36325;51.512;-0.382;2023-03-01T08:41:36;6.32;;;1.83;;
30036;SDS011;36325;51.512;-0.382;2023-03-01T08:44:04;2.97;;;1.67;;
30036;SDS011;36325;51.512;-0.382;2023-03-01T08:46:34;3.90;;;1.98;;
30036;SDS011;36325;51.512;-0.382;2023-03-01T08:49:04;2.83;;;1.55;;
30036;SDS011;36325;51.512;-0.382;2023-03-01T08:51:33;8.55;;;2.28;;
30036;SDS011;36325;51.512;-0.382;2023-03-01T08:54:07;5.78;;;1.65;;
30036;SDS011;36325;51.512;-0.382;2023-03-01T08:56:44;6.13;;;2.13;;
30036;SDS011;36325;51.512;-0.382;2023-03-01T08:59:13;3.45;;;1.38;;
30036;SDS011;36325;51.512;-0.382;2023-03-01T09:01:41;3.30;;;1.40;;
30036;SDS011;36325;51.512;-0.382;2023-03-01T09:04:12;4.80;;;1.33;;
30036;SDS011;36325;51.512;-0.382;2023-03-01T09:06:42;2.95;;;1.17;;
30036;SDS011;36325;51.512;-0.382;2023-03-01T09:09:14;3.63;;;1.60;;
30036;SDS011;36325;51.512;-0.382;2023-03-01T09:11:43;3.90;;;1.40;;
30036;SDS011;36325;51.512;-0.382;2023-03-01T09:14:13;6.47;;;0.98;;
30036;SDS011;36325;51.512;-0.382;2023-03-01T09:16:40;3.00;;;0.90;;
30036;SDS011;36325;51.512;-0.382;2023-03-01T09:19:08;5.15;;;1.15;;
30036;SDS011;36325;51.512;-0.382;2023-03-01T09:21:36;5.72;;;1.25;;
30036;SDS011;36325;51.512;-0.382;2023-03-01T09:24:11;2.78;;;1.00;;
30036;SDS011;36325;51.512;-0.382;2023-03-01T09:26:40;3.03;;;0.73;;
30036;SDS011;36325;51.512;-0.382;2023-03-01T09:29:08;4.35;;;1.35;;
30036;SDS011;36325;51.512;-0.382;2023-03-01T09:31:36;3.80;;;0.85;;
30036;SDS011;36325;51.512;-0.382;2023-03-01T09:34:04;3.92;;;1.30;;
30036;SDS011;36325;51.512;-0.382;2023-03-01T09:36:31;4.50;;;1.38;;
30036;SDS011;36325;51.512;-0.382;2023-03-01T09:39:00;2.95;;;1.70;;
30036;SDS011;36325;51.512;-0.382;2023-03-01T09:44:18;3.45;;;1.30;;
30036;SDS011;36325;51.512;-0.382;2023-03-01T09:46:50;2.80;;;1.13;;
30036;SDS011;36325;51.512;-0.382;2023-03-01T09:49:23;5.05;;;0.93;;
30036;SDS011;36325;51.512;-0.382;2023-03-01T09:51:56;1.98;;;0.90;;
30036;SDS011;36325;51.512;-0.382;2023-03-01T10:00:16;4.93;;;1.40;;
30036;SDS011;36325;51.512;-0.382;2023-03-01T10:02:23;3.05;;;0.88;;
30036;SDS011;36325;51.512;-0.382;2023-03-01T10:04:58;1.75;;;0.80;;
30036;SDS011;36325;51.512;-0.382;2023-03-01T10:10:43;3.03;;;1.25;;
30036;SDS011;36325;51.512;-0.382;2023-03-01T10:13:18;4.97;;;1.35;;
30036;SDS011;36325;51.512;-0.382;2023-03-01T10:16:00;16.25;;;2.70;;
30036;SDS011;36325;51.512;-0.382;2023-03-01T10:18:51;3.30;;;1.27;;
30036;SDS011;36325;51.512;-0.382;2023-03-01T10:21:25;3.22;;;1.25;;
30036;SDS011;36325;51.512;-0.382;2023-03-01T10:24:05;2.03;;;1.20;;
30036;SDS011;36325;51.512;-0.382;2023-03-01T10:26:43;1.90;;;1.33;;
30036;SDS011;36325;51.512;-0.382;2023-03-01T10:32:21;7.75;;;1.38;;
30036;SDS011;36325;51.512;-0.382;2023-03-01T10:34:50;2.28;;;1.15;;
30036;SDS011;36325;51.512;-0.382;2023-03-01T10:37:18;3.33;;;1.58;;
30036;SDS011;36325;51.512;-0.382;2023-03-01T10:39:58;4.00;;;1.15;;
30036;SDS011;36325;51.512;-0.382;2023-03-01T10:42:38;3.90;;;2.05;;
30036;SDS011;36325;51.512;-0.382;2023-03-01T10:48:11;1.50;;;0.70;;
30036;SDS011;36325;51.512;-0.382;2023-03-01T10:50:42;7.93;;;1.50;;
30036;SDS011;36325;51.512;-0.382;2023-03-01T10:53:22;3.25;;;1.40;;
30036;SDS011;36325;51.512;-0.382;2023-03-01T10:55:59;2.58;;;1.27;;
30036;SDS011;36325;51.512;-0.382;2023-03-01T10:58:40;3.72;;;1.23;;
30036;SDS011;36325;51.512;-0.382;2023-03-01T11:01:33;4.15;;;1.20;;
30036;SDS011;36325;51.512;-0.382;2023-03-01T11:04:08;2.33;;;1.30;;
30036;SDS011;36325;51.512;-0.382;2023-03-01T11:06:40;5.40;;;1.13;;
30036;SDS011;36325;51.512;-0.382;2023-03-01T11:09:25;3.35;;;1.33;;
30036;SDS011;36325;51.512;-0.382;2023-03-01T11:11:57;12.05;;;1.70;;
30036;SDS011;36325;51.512;-0.382;2023-03-01T11:14:28;3.28;;;1.25;;
30036;SDS011;36325;51.512;-0.382;2023-03-01T11:17:13;4.82;;;1.40;;
30036;SDS011;36325;51.512;-0.382;2023-03-01T11:19:59;4.53;;;1.20;;
30036;SDS011;36325;51.512;-0.382;2023-03-01T11:22:28;2.85;;;1.20;;
30036;SDS011;36325;51.512;-0.382;2023-03-01T11:24:57;4.82;;;1.23;;
30036;SDS011;36325;51.512;-0.382;2023-03-01T11:27:36;1.77;;;1.10;;
30036;SDS011;36325;51.512;-0.382;2023-03-01T11:30:21;6.55;;;1.27;;
30036;SDS011;36325;51.512;-0.382;2023-03-01T11:35:36;1.13;;;0.60;;
30036;SDS011;36325;51.512;-0.382;2023-03-01T11:40:54;2.00;;;0.98;;
30036;SDS011;36325;51.512;-0.382;2023-03-01T11:49:12;3.25;;;1.05;;
30036;SDS011;36325;51.512;-0.382;2023-03-01T11:54:28;1.65;;;0.95;;
30036;SDS011;36325;51.512;-0.382;2023-03-01T12:06:29;1.90;;;1.00;;
30036;SDS011;36325;51.512;-0.382;2023-03-01T12:11:58;3.55;;;1.10;;
30036;SDS011;36325;51.512;-0.382;2023-03-01T12:21:03;2.75;;;1.02;;
30036;SDS011;36325;51.512;-0.382;2023-03-01T12:23:55;3.97;;;1.08;;
30036;SDS011;36325;51.512;-0.382;2023-03-01T12:26:51;1.98;;;0.90;;
30036;SDS011;36325;51.512;-0.382;2023-03-01T12:37:36;2.15;;;0.80;;
30036;SDS011;36325;51.512;-0.382;2023-03-01T12:46:14;3.55;;;0.98;;
30036;SDS011;36325;51.512;-0.382;2023-03-01T12:51:37;5.57;;;0.90;;
30036;SDS011;36325;51.512;-0.382;2023-03-01T12:54:16;5.15;;;1.40;;
30036;SDS011;36325;51.512;-0.382;2023-03-01T12:56:55;4.38;;;1.15;;
30036;SDS011;36325;51.512;-0.382;2023-03-01T12:59:31;3.08;;;1.30;;
30036;SDS011;36325;51.512;-0.382;2023-03-01T13:10:38;3.20;;;1.58;;
30036;SDS011;36325;51.512;-0.382;2023-03-01T13:15:45;1.45;;;0.85;;
30036;SDS011;36325;51.512;-0.382;2023-03-01T13:20:56;5.93;;;1.02;;
30036;SDS011;36325;51.512;-0.382;2023-03-01T13:28:55;1.27;;;0.88;;
30036;SDS011;36325;51.512;-0.382;2023-03-01T13:37:08;4.57;;;1.67;;
30036;SDS011;36325;51.512;-0.382;2023-03-01T13:42:46;4.53;;;1.85;;
30036;SDS011;36325;51.512;-0.382;2023-03-01T13:45:41;5.47;;;1.73;;
30036;SDS011;36325;51.512;-0.382;2023-03-01T13:48:22;3.28;;;1.27;;
30036;SDS011;36325;51.512;-0.382;2023-03-01T13:50:57;5.43;;;1.85;;
30036;SDS011;36325;51.512;-0.382;2023-03-01T13:53:29;5.55;;;1.90;;
30036;SDS011;36325;51.512;-0.382;2023-03-01T13:56:02;1.98;;;1.30;;
30036;SDS011;36325;51.512;-0.382;2023-03-01T14:01:29;6.93;;;2.30;;
30036;SDS011;36325;51.512;-0.382;2023-03-01T14:03:58;8.02;;;1.48;;
30036;SDS011;36325;51.512;-0.382;2023-03-01T14:06:28;4.43;;;1.45;;
30036;SDS011;36325;51.512;-0.382;2023-03-01T14:14:59;4.70;;;1.38;;
30036;SDS011;36325;51.512;-0.382;2023-03-01T14:20:22;4.43;;;1.27;;
30036;SDS011;36325;51.512;-0.382;2023-03-01T14:22:57;6.63;;;1.45;;
30036;SDS011;36325;51.512;-0.382;2023-03-01T14:25:31;1.58;;;0.98;;
30036;SDS011;36325;51.512;-0.382;2023-03-01T14:28:46;5.38;;;1.52;;
30036;SDS011;36325;51.512;-0.382;2023-03-01T14:30:51;3.88;;;1.40;;
30036;SDS011;36325;51.512;-0.382;2023-03-01T14:33:27;3.67;;;1.35;;
30036;SDS011;36325;51.512;-0.382;2023-03-01T14:36:07;4.82;;;1.10;;
30036;SDS011;36325;51.512;-0.382;2023-03-01T14:41:09;1.52;;;1.20;;
30036;SDS011;36325;51.512;-0.382;2023-03-01T14:46:21;2.75;;;1.23;;
30036;SDS011;36325;51.512;-0.382;2023-03-01T14:49:07;2.00;;;1.10;;
30036;SDS011;36325;51.512;-0.382;2023-03-01T14:51:37;1.45;;;1.02;;
30036;SDS011;36325;51.512;-0.382;2023-03-01T14:54:17;4.72;;;1.50;;
30036;SDS011;36325;51.512;-0.382;2023-03-01T14:56:48;3.42;;;1.33;;
30036;SDS011;36325;51.512;-0.382;2023-03-01T14:59:22;3.90;;;1.20;;
30036;SDS011;36325;51.512;-0.382;2023-03-01T15:01:50;4.93;;;1.40;;
30036;SDS011;36325;51.512;-0.382;2023-03-01T15:04:19;3.92;;;1.55;;
30036;SDS011;36325;51.512;-0.382;2023-03-01T15:06:52;4.82;;;1.52;;
30036;SDS011;36325;51.512;-0.382;2023-03-01T15:09:21;4.95;;;1.98;;
30036;SDS011;36325;51.512;-0.382;2023-03-01T15:11:49;3.17;;;1.30;;
30036;SDS011;36325;51.512;-0.382;2023-03-01T15:14:59;4.20;;;1.38;;
30036;SDS011;36325;51.512;-0.382;2023-03-01T15:20:02;6.10;;;1.33;;
30036;SDS011;36325;51.512;-0.382;2023-03-01T15:22:43;5.38;;;1.20;;
30036;SDS011;36325;51.512;-0.382;2023-03-01T15:25:18;8.18;;;1.63;;
30036;SDS011;36325;51.512;-0.382;2023-03-01T15:27:47;3.72;;;1.60;;
30036;SDS011;36325;51.512;-0.382;2023-03-01T15:30:20;5.07;;;2.00;;
30036;SDS011;36325;51.512;-0.382;2023-03-01T15:35:48;3.42;;;1.30;;
30036;SDS011;36325;51.512;-0.382;2023-03-01T15:38:25;3.78;;;2.30;;
30036;SDS011;36325;51.512;-0.382;2023-03-01T15:40:53;5.53;;;2.50;;
30036;SDS011;36325;51.512;-0.382;2023-03-01T15:43:38;5.55;;;1.52;;
30036;SDS011;36325;51.512;-0.382;2023-03-01T15:49:19;8.77;;;1.90;;
30036;SDS011;36325;51.512;-0.382;2023-03-01T15:52:28;2.45;;;1.38;;
30036;SDS011;36325;51.512;-0.382;2023-03-01T15:55:04;3.83;;;0.95;;
30036;SDS011;36325;51.512;-0.382;2023-03-01T15:57:41;5.35;;;0.93;;
30036;SDS011;36325;51.512;-0.382;2023-03-01T16:00:09;2.42;;;0.82;;
30036;SDS011;36325;51.512;-0.382;2023-03-01T16:02:40;5.97;;;1.47;;
30036;SDS011;36325;51.512;-0.382;2023-03-01T16:05:31;5.88;;;2.10;;
30036;SDS011;36325;51.512;-0.382;2023-03-01T16:07:58;2.17;;;0.90;;
30036;SDS011;36325;51.512;-0.382;2023-03-01T16:10:27;6.95;;;1.15;;
30036;SDS011;36325;51.512;-0.382;2023-03-01T16:12:54;6.13;;;0.95;;
30036;SDS011;36325;51.512;-0.382;2023-03-01T16:15:23;3.05;;;0.65;;
30036;SDS011;36325;51.512;-0.382;2023-03-01T16:17:52;4.28;;;0.90;;
30036;SDS011;36325;51.512;-0.382;2023-03-01T16:20:23;1.13;;;0.60;;
30036;SDS011;36325;51.512;-0.382;2023-03-01T16:22:59;4.90;;;1.00;;
30036;SDS011;36325;51.512;-0.382;2023-03-01T16:25:28;1.77;;;0.82;;
30036;SDS011;36325;51.512;-0.382;2023-03-01T16:27:56;3.25;;;1.15;;
30036;SDS011;36325;51.512;-0.382;2023-03-01T16:30:24;4.30;;;1.00;;
30036;SDS011;36325;51.512;-0.382;2023-03-01T16:32:52;4.80;;;0.90;;
30036;SDS011;36325;51.512;-0.382;2023-03-01T16:35:20;3.13;;;0.63;;
30036;SDS011;36325;51.512;-0.382;2023-03-01T16:37:50;3.75;;;0.70;;
30036;SDS011;36325;51.512;-0.382;2023-03-01T16:40:20;2.58;;;1.08;;
30036;SDS011;36325;51.512;-0.382;2023-03-01T16:42:49;1.70;;;0.68;;
30036;SDS011;36325;51.512;-0.382;2023-03-01T16:45:17;5.00;;;1.30;;
30036;SDS011;36325;51.512;-0.382;2023-03-01T16:47:51;3.25;;;1.70;;
30036;SDS011;36325;51.512;-0.382;2023-03-01T16:50:21;2.70;;;1.00;;
30036;SDS011;36325;51.512;-0.382;2023-03-01T16:52:49;1.38;;;0.52;;
30036;SDS011;36325;51.512;-0.382;2023-03-01T16:55:17;1.50;;;1.10;;
30036;SDS011;36325;51.512;-0.382;2023-03-01T16:57:44;3.90;;;0.80;;
30036;SDS011;36325;51.512;-0.382;2023-03-01T17:00:12;1.92;;;0.70;;
30036;SDS011;36325;51.512;-0.382;2023-03-01T17:02:40;4.70;;;0.88;;
30036;SDS011;36325;51.512;-0.382;2023-03-01T17:05:08;4.00;;;0.93;;
30036;SDS011;36325;51.512;-0.382;2023-03-01T17:07:38;6.07;;;1.30;;
30036;SDS011;36325;51.512;-0.382;2023-03-01T17:10:07;2.90;;;1.25;;
30036;SDS011;36325;51.512;-0.382;2023-03-01T17:12:35;3.15;;;1.00;;
30036;SDS011;36325;51.512;-0.382;2023-03-01T17:15:04;4.57;;;0.80;;
30036;SDS011;36325;51.512;-0.382;2023-03-01T17:17:32;2.85;;;1.35;;
30036;SDS011;36325;51.512;-0.382;2023-03-01T17:20:01;4.15;;;1.27;;
30036;SDS011;36325;51.512;-0.382;2023-03-01T17:22:30;4.85;;;1.50;;